createdAt,value
2018-12-01T00:00:23.751Z,7.40
2018-12-01T00:02:51.978Z,7.40
2018-12-01T00:05:20.158Z,7.50
2018-12-01T00:07:49.027Z,7.60
2018-12-01T00:10:17.191Z,7.60
2018-12-01T00:12:45.358Z,7.60
2018-12-01T00:15:16.787Z,7.50
2018-12-01T00:17:44.999Z,7.40
2018-12-01T00:20:17.551Z,7.40
2018-12-01T00:22:45.732Z,7.20
2018-12-01T00:25:13.955Z,7.10
2018-12-01T00:27:42.112Z,7.00
2018-12-01T00:30:13.203Z,7.00
2018-12-01T00:32:41.763Z,6.90
2018-12-01T00:35:11.067Z,6.80
2018-12-01T00:37:39.251Z,6.80
2018-12-01T00:40:10.675Z,6.70
2018-12-01T00:42:39.175Z,6.70
2018-12-01T00:45:09.077Z,6.70
2018-12-01T00:47:37.276Z,6.60
2018-12-01T00:50:09.147Z,6.60
2018-12-01T00:52:37.385Z,6.50
2018-12-01T00:55:07.419Z,6.50
2018-12-01T00:57:35.607Z,6.50
2018-12-01T01:00:05.786Z,6.40
2018-12-01T01:02:34.123Z,6.40
2018-12-01T01:05:02.268Z,6.30
2018-12-01T01:07:30.442Z,6.20
2018-12-01T01:09:58.628Z,6.20
2018-12-01T01:12:27.131Z,6.20
2018-12-01T01:14:55.308Z,6.30
2018-12-01T01:17:23.455Z,6.30
2018-12-01T01:19:51.604Z,6.30
2018-12-01T01:22:19.795Z,6.20
2018-12-01T01:24:48.071Z,6.20
2018-12-01T01:27:16.240Z,6.20
2018-12-01T01:29:44.367Z,6.20
2018-12-01T01:32:12.636Z,6.20
2018-12-01T01:34:40.977Z,6.20
2018-12-01T01:37:09.147Z,6.20
2018-12-01T01:39:37.351Z,6.20
2018-12-01T01:42:05.771Z,6.20
2018-12-01T01:44:33.959Z,6.20
2018-12-01T01:47:02.173Z,6.20
2018-12-01T01:49:30.363Z,6.30
2018-12-01T01:51:58.573Z,6.30
2018-12-01T01:54:26.735Z,6.30
2018-12-01T01:56:54.910Z,6.30
2018-12-01T01:59:23.124Z,6.10
2018-12-01T02:01:51.284Z,6.10
2018-12-01T02:04:19.961Z,6.10
2018-12-01T02:06:48.125Z,6.00
2018-12-01T02:09:16.543Z,5.90
2018-12-01T02:11:44.763Z,5.80
2018-12-01T02:14:12.954Z,5.80
2018-12-01T02:16:41.100Z,5.70
2018-12-01T02:19:09.305Z,5.70
2018-12-01T02:21:38.473Z,5.70
2018-12-01T02:24:06.636Z,5.70
2018-12-01T02:26:34.844Z,5.70
2018-12-01T02:29:03.000Z,5.70
2018-12-01T02:31:31.207Z,5.80
2018-12-01T02:33:59.389Z,5.80
2018-12-01T02:36:27.567Z,5.80
2018-12-01T02:38:56.013Z,5.70
2018-12-01T02:41:24.156Z,5.70
2018-12-01T02:44:03.751Z,5.70
2018-12-01T02:46:43.315Z,5.70
2018-12-01T02:49:11.667Z,5.60
2018-12-01T02:51:39.812Z,5.60
2018-12-01T02:54:08.008Z,5.70
2018-12-01T02:56:36.217Z,5.70
2018-12-01T02:59:04.598Z,5.70
2018-12-01T03:01:32.715Z,5.70
2018-12-01T03:04:00.915Z,5.70
2018-12-01T03:06:29.076Z,5.70
2018-12-01T03:08:57.231Z,5.80
2018-12-01T03:11:25.435Z,5.80
2018-12-01T03:13:53.608Z,5.70
2018-12-01T03:16:21.739Z,5.80
2018-12-01T03:18:49.959Z,5.80
2018-12-01T03:21:18.111Z,5.80
2018-12-01T03:23:46.268Z,5.90
2018-12-01T03:26:14.455Z,5.90
2018-12-01T03:28:42.645Z,5.90
2018-12-01T03:31:10.828Z,5.90
2018-12-01T03:33:39.027Z,6.00
2018-12-01T03:36:07.212Z,6.00
2018-12-01T03:38:35.579Z,6.10
2018-12-01T03:41:03.817Z,6.10
2018-12-01T03:43:31.972Z,6.20
2018-12-01T03:46:00.199Z,6.30
2018-12-01T03:48:28.408Z,6.30
2018-12-01T03:50:56.583Z,6.30
2018-12-01T03:53:24.740Z,6.40
2018-12-01T03:55:52.883Z,6.40
2018-12-01T03:58:21.077Z,6.40
2018-12-01T04:00:49.255Z,6.40
2018-12-01T04:03:17.456Z,6.40
2018-12-01T04:05:45.661Z,6.40
2018-12-01T04:08:13.835Z,6.40
2018-12-01T04:10:41.997Z,6.50
2018-12-01T04:13:10.172Z,6.50
2018-12-01T04:15:38.393Z,6.60
2018-12-01T04:18:06.575Z,6.70
2018-12-01T04:20:34.749Z,6.70
2018-12-01T04:23:02.916Z,6.70
2018-12-01T04:25:31.060Z,6.70
2018-12-01T04:27:59.199Z,6.80
2018-12-01T04:30:27.383Z,6.80
2018-12-01T04:32:55.531Z,6.90
2018-12-01T04:35:24.316Z,6.80
2018-12-01T04:37:53.612Z,6.90
2018-12-01T04:40:21.868Z,6.90
2018-12-01T04:42:50.043Z,6.90
2018-12-01T04:45:18.430Z,6.90
2018-12-01T04:47:46.681Z,6.90
2018-12-01T04:50:19.195Z,6.90
2018-12-01T04:52:48.375Z,6.90
2018-12-01T04:55:20.344Z,6.90
2018-12-01T04:57:48.599Z,6.90
2018-12-01T05:00:18.559Z,6.90
2018-12-01T05:02:46.796Z,6.80
2018-12-01T05:05:18.049Z,6.80
2018-12-01T05:07:46.199Z,6.80
2018-12-01T05:10:15.217Z,6.90
2018-12-01T05:12:43.400Z,6.90
2018-12-01T05:15:13.508Z,7.00
2018-12-01T05:17:41.788Z,7.00
2018-12-01T05:20:11.419Z,7.10
2018-12-01T05:22:39.638Z,7.20
2018-12-01T05:25:08.742Z,7.20
2018-12-01T05:27:36.921Z,7.10
2018-12-01T05:30:06.269Z,7.10
2018-12-01T05:32:34.843Z,7.10
2018-12-01T05:35:03.293Z,7.10
2018-12-01T05:37:31.491Z,7.00
2018-12-01T05:39:59.663Z,7.00
2018-12-01T05:42:27.839Z,7.10
2018-12-01T05:44:56.032Z,7.20
2018-12-01T05:47:24.195Z,7.20
2018-12-01T05:49:52.363Z,7.10
2018-12-01T05:52:20.580Z,7.10
2018-12-01T05:54:48.825Z,7.10
2018-12-01T05:57:16.947Z,7.10
2018-12-01T05:59:45.096Z,7.10
2018-12-01T06:02:13.299Z,7.10
2018-12-01T06:04:41.459Z,7.00
2018-12-01T06:07:09.643Z,6.90
2018-12-01T06:09:37.791Z,7.00
2018-12-01T06:12:05.964Z,7.00
2018-12-01T06:14:34.157Z,7.00
2018-12-01T06:17:02.327Z,7.10
2018-12-01T06:19:30.531Z,7.00
2018-12-01T06:21:59.783Z,7.00
2018-12-01T06:24:27.928Z,7.00
2018-12-01T06:26:56.076Z,7.00
2018-12-01T06:29:24.225Z,7.00
2018-12-01T06:31:52.439Z,7.00
2018-12-01T06:34:20.607Z,7.00
2018-12-01T06:36:48.779Z,7.00
2018-12-01T06:39:16.964Z,7.00
2018-12-01T06:41:45.132Z,6.90
2018-12-01T06:44:13.305Z,6.90
2018-12-01T06:46:41.455Z,6.90
2018-12-01T06:49:09.601Z,6.90
2018-12-01T06:51:37.831Z,6.80
2018-12-01T06:54:06.017Z,6.80
2018-12-01T06:56:34.152Z,6.70
2018-12-01T06:59:02.331Z,6.70
2018-12-01T07:01:30.544Z,6.60
2018-12-01T07:03:58.799Z,6.60
2018-12-01T07:06:26.946Z,6.60
2018-12-01T07:08:55.349Z,6.60
2018-12-01T07:11:23.555Z,6.60
2018-12-01T07:13:51.720Z,6.70
2018-12-01T07:16:20.147Z,6.80
2018-12-01T07:18:59.575Z,6.80
2018-12-01T07:21:28.609Z,6.90
2018-12-01T07:23:56.767Z,6.80
2018-12-01T07:26:25.080Z,6.80
2018-12-01T07:28:53.227Z,6.80
2018-12-01T07:31:21.443Z,6.70
2018-12-01T07:33:49.619Z,6.70
2018-12-01T07:36:17.823Z,6.80
2018-12-01T07:38:46.012Z,6.80
2018-12-01T07:41:14.223Z,6.80
2018-12-01T07:43:42.423Z,6.80
2018-12-01T07:46:10.633Z,6.80
2018-12-01T07:48:38.792Z,6.80
2018-12-01T07:51:06.935Z,6.90
2018-12-01T07:53:35.111Z,7.00
2018-12-01T07:56:03.284Z,7.00
2018-12-01T07:58:31.452Z,7.00
2018-12-01T08:00:59.612Z,7.00
2018-12-01T08:03:27.783Z,7.10
2018-12-01T08:05:55.932Z,7.20
2018-12-01T08:08:24.092Z,7.30
2018-12-01T08:10:52.661Z,7.30
2018-12-01T08:13:20.848Z,7.40
2018-12-01T08:15:49.139Z,7.50
2018-12-01T08:18:17.294Z,7.60
2018-12-01T08:20:45.459Z,7.60
2018-12-01T08:23:13.643Z,7.70
2018-12-01T08:25:42.771Z,7.70
2018-12-01T08:28:11.469Z,7.70
2018-12-01T08:30:44.605Z,7.80
2018-12-01T08:33:12.794Z,7.80
2018-12-01T08:35:40.973Z,7.90
2018-12-01T08:38:09.175Z,7.90
2018-12-01T08:40:37.337Z,7.90
2018-12-01T08:43:05.824Z,8.00
2018-12-01T08:45:33.989Z,8.00
2018-12-01T08:48:02.174Z,8.10
2018-12-01T08:50:30.342Z,8.10
2018-12-01T08:52:58.476Z,8.10
2018-12-01T08:55:26.615Z,8.20
2018-12-01T08:57:54.968Z,8.20
2018-12-01T09:00:28.564Z,8.30
2018-12-01T09:02:58.175Z,8.30
2018-12-01T09:05:26.443Z,8.40
2018-12-01T09:07:54.652Z,8.40
2018-12-01T09:10:22.816Z,8.40
2018-12-01T09:12:50.967Z,8.40
2018-12-01T09:15:19.147Z,8.50
2018-12-01T09:17:47.355Z,8.50
2018-12-01T09:20:15.520Z,8.50
2018-12-01T09:22:44.801Z,8.50
2018-12-01T09:25:15.927Z,8.60
2018-12-01T09:27:44.207Z,8.60
2018-12-01T09:30:15.459Z,8.70
2018-12-01T09:32:43.610Z,8.80
2018-12-01T09:35:11.800Z,8.80
2018-12-01T09:37:39.987Z,8.90
2018-12-01T09:40:09.787Z,8.90
2018-12-01T09:42:37.940Z,8.90
2018-12-01T09:45:09.852Z,9.00
2018-12-01T09:47:38.084Z,9.10
2018-12-01T09:50:10.387Z,9.10
2018-12-01T09:52:38.631Z,9.20
2018-12-01T09:55:10.088Z,9.30
2018-12-01T09:57:38.687Z,9.30
2018-12-01T10:00:24.983Z,9.40
2018-12-01T10:02:53.156Z,9.50
2018-12-01T10:05:21.632Z,9.50
2018-12-01T10:07:49.786Z,9.50
2018-12-01T10:10:19.003Z,9.50
2018-12-01T10:12:48.388Z,9.50
2018-12-01T10:15:18.607Z,9.60
2018-12-01T10:17:46.755Z,9.60
2018-12-01T10:20:16.304Z,9.60
2018-12-01T10:22:44.496Z,9.70
2018-12-01T10:25:14.915Z,9.80
2018-12-01T10:27:43.333Z,10.00
2018-12-01T10:30:12.783Z,10.10
2018-12-01T10:32:40.995Z,10.20
2018-12-01T10:35:10.749Z,10.40
2018-12-01T10:37:38.924Z,10.40
2018-12-01T10:40:12.151Z,10.30
2018-12-01T10:42:41.186Z,10.40
2018-12-01T10:45:13.799Z,10.30
2018-12-01T10:47:44.087Z,10.20
2018-12-01T10:50:17.227Z,10.10
2018-12-01T10:52:46.300Z,10.10
2018-12-01T10:55:26.808Z,10.20
2018-12-01T10:57:58.030Z,10.20
2018-12-01T11:00:33.031Z,10.30
2018-12-01T11:03:04.324Z,10.20
2018-12-01T11:05:33.784Z,10.30
2018-12-01T11:08:01.958Z,10.30
2018-12-01T11:10:31.119Z,10.20
2018-12-01T11:13:00.895Z,10.20
2018-12-01T11:15:30.192Z,10.10
2018-12-01T11:17:58.392Z,10.00
2018-12-01T11:20:26.704Z,10.10
2018-12-01T11:22:57.937Z,10.10
2018-12-01T11:25:23.069Z,10.10
2018-12-01T11:27:51.272Z,10.10
2018-12-01T11:30:19.603Z,10.10
2018-12-01T11:32:48.127Z,10.10
2018-12-01T11:35:16.288Z,10.10
2018-12-01T11:37:44.939Z,10.20
2018-12-01T11:40:15.287Z,10.30
2018-12-01T11:42:42.448Z,10.30
2018-12-01T11:45:12.603Z,10.30
2018-12-01T11:47:40.770Z,10.30
2018-12-01T11:50:11.268Z,10.40
2018-12-01T11:52:39.502Z,10.40
2018-12-01T11:55:11.846Z,10.40
2018-12-01T11:57:40.132Z,10.40
2018-12-01T12:00:10.760Z,10.50
2018-12-01T12:02:38.913Z,10.60
2018-12-01T12:05:08.077Z,10.50
2018-12-01T12:07:47.649Z,10.60
2018-12-01T12:10:15.856Z,10.60
2018-12-01T12:12:44.059Z,10.70
2018-12-01T12:15:12.249Z,10.70
2018-12-01T12:17:40.843Z,10.90
2018-12-01T12:20:09.927Z,11.10
2018-12-01T12:22:38.125Z,11.20
2018-12-01T12:25:09.475Z,11.20
2018-12-01T12:27:39.095Z,11.30
2018-12-01T12:30:10.435Z,11.40
2018-12-01T12:32:38.987Z,11.40
2018-12-01T12:35:07.845Z,11.50
2018-12-01T12:37:36.015Z,11.50
2018-12-01T12:40:06.665Z,11.60
2018-12-01T12:42:34.851Z,11.60
2018-12-01T12:45:03.046Z,11.60
2018-12-01T12:47:31.232Z,11.60
2018-12-01T12:49:59.527Z,11.50
2018-12-01T12:52:27.714Z,11.50
2018-12-01T12:54:55.884Z,11.40
2018-12-01T12:57:24.087Z,11.30
2018-12-01T12:59:52.250Z,11.30
2018-12-01T13:02:20.440Z,11.20
2018-12-01T13:04:48.663Z,11.20
2018-12-01T13:07:16.792Z,11.20
2018-12-01T13:09:45.028Z,11.10
2018-12-01T13:12:13.184Z,11.20
2018-12-01T13:14:41.407Z,11.20
2018-12-01T13:17:09.559Z,11.10
2018-12-01T13:19:37.740Z,11.10
2018-12-01T13:22:06.219Z,11.00
2018-12-01T13:24:34.404Z,11.00
2018-12-01T13:27:02.552Z,10.90
2018-12-01T13:29:30.679Z,10.90
2018-12-01T13:31:58.871Z,10.90
2018-12-01T13:34:27.035Z,10.90
2018-12-01T13:36:55.200Z,10.90
2018-12-01T13:39:23.335Z,10.90
2018-12-01T13:41:51.492Z,11.00
2018-12-01T13:44:19.709Z,11.00
2018-12-01T13:46:47.907Z,11.00
2018-12-01T13:49:16.059Z,11.10
2018-12-01T13:51:44.264Z,11.10
2018-12-01T13:54:12.437Z,11.10
2018-12-01T13:56:43.423Z,11.10
2018-12-01T13:59:11.592Z,11.00
2018-12-01T14:01:39.771Z,11.00
2018-12-01T14:04:08.031Z,10.90
2018-12-01T14:06:36.247Z,10.90
2018-12-01T14:09:06.008Z,10.90
2018-12-01T14:11:34.219Z,10.90
2018-12-01T14:14:02.426Z,10.90
2018-12-01T14:16:30.639Z,10.80
2018-12-01T14:18:58.803Z,10.80
2018-12-01T14:21:27.593Z,10.80
2018-12-01T14:23:55.732Z,10.90
2018-12-01T14:26:23.903Z,10.90
2018-12-01T14:28:52.061Z,10.90
2018-12-01T14:31:20.279Z,10.80
2018-12-01T14:33:48.403Z,10.80
2018-12-01T14:36:16.629Z,10.80
2018-12-01T14:38:44.787Z,10.80
2018-12-01T14:41:12.972Z,10.80
2018-12-01T14:43:41.107Z,10.80
2018-12-01T14:46:09.259Z,10.80
2018-12-01T14:48:37.415Z,10.70
2018-12-01T14:51:05.919Z,10.70
2018-12-01T14:53:34.147Z,10.70
2018-12-01T14:56:02.315Z,10.60
2018-12-01T14:58:30.476Z,10.60
2018-12-01T15:00:58.641Z,10.60
2018-12-01T15:03:26.807Z,10.60
2018-12-01T15:05:55.044Z,10.50
2018-12-01T15:08:23.251Z,10.50
2018-12-01T15:10:51.444Z,10.50
2018-12-01T15:13:20.232Z,10.40
2018-12-01T15:15:48.379Z,10.40
2018-12-01T15:18:16.645Z,10.40
2018-12-01T15:20:44.817Z,10.30
2018-12-01T15:23:12.979Z,10.30
2018-12-01T15:25:41.127Z,10.30
2018-12-01T15:28:09.300Z,10.30
2018-12-01T15:30:36.827Z,10.20
2018-12-01T15:33:09.031Z,10.20
2018-12-01T15:35:36.497Z,10.20
2018-12-01T15:38:04.023Z,10.10
2018-12-01T15:40:32.190Z,10.00
2018-12-01T15:43:00.375Z,10.00
2018-12-01T15:45:27.886Z,9.90
2018-12-01T15:47:55.304Z,9.90
2018-12-01T15:50:22.807Z,10.00
2018-12-01T15:52:51.704Z,9.90
2018-12-01T15:55:20.164Z,10.00
2018-12-01T15:57:48.492Z,9.90
2018-12-01T16:00:17.457Z,9.90
2018-12-01T16:02:44.923Z,9.90
2018-12-01T16:05:12.821Z,9.90
2018-12-01T16:07:40.283Z,9.90
2018-12-01T16:10:08.614Z,9.90
2018-12-01T16:12:36.087Z,9.90
2018-12-01T16:15:03.736Z,9.90
2018-12-01T16:17:31.191Z,9.90
2018-12-01T16:19:58.652Z,9.90
2018-12-01T16:22:26.135Z,9.90
2018-12-01T16:24:53.627Z,9.90
2018-12-01T16:27:21.661Z,10.00
2018-12-01T16:29:48.657Z,10.00
2018-12-01T16:32:16.170Z,10.00
2018-12-01T16:34:43.599Z,10.00
2018-12-01T16:37:11.104Z,10.00
2018-12-01T16:39:38.598Z,10.00
2018-12-01T16:42:06.732Z,9.90
2018-12-01T16:44:34.292Z,9.90
2018-12-01T16:47:02.393Z,10.00
2018-12-01T16:49:29.842Z,9.90
2018-12-01T16:51:57.300Z,9.90
2018-12-01T16:54:25.432Z,9.80
2018-12-01T16:56:54.661Z,9.90
2018-12-01T16:59:22.203Z,9.80
2018-12-01T17:01:51.039Z,9.80
2018-12-01T17:04:19.238Z,9.70
2018-12-01T17:06:47.959Z,9.70
2018-12-01T17:09:17.301Z,9.70
2018-12-01T17:11:44.818Z,9.70
2018-12-01T17:14:13.567Z,9.70
2018-12-01T17:16:42.628Z,9.70
2018-12-01T17:19:13.030Z,9.70
2018-12-01T17:21:46.686Z,9.70
2018-12-01T17:24:16.475Z,9.70
2018-12-01T17:26:45.567Z,9.70
2018-12-01T17:29:13.151Z,9.70
2018-12-01T17:31:40.631Z,9.70
2018-12-01T17:34:08.071Z,9.70
2018-12-01T17:36:35.526Z,9.70
2018-12-01T17:39:04.879Z,9.70
2018-12-01T17:41:32.315Z,9.80
2018-12-01T17:44:03.375Z,9.80
2018-12-01T17:46:30.848Z,9.80
2018-12-01T17:48:58.511Z,9.80
2018-12-01T17:51:25.946Z,9.80
2018-12-01T17:53:54.642Z,9.70
2018-12-01T17:56:22.135Z,9.80
2018-12-01T17:58:49.690Z,9.80
2018-12-01T18:01:17.178Z,9.90
2018-12-01T18:03:44.671Z,9.90
2018-12-01T18:06:12.531Z,9.80
2018-12-01T18:08:39.992Z,9.80
2018-12-01T18:11:07.808Z,9.90
2018-12-01T18:13:35.271Z,10.00
2018-12-01T18:16:03.151Z,10.00
2018-12-01T18:18:30.634Z,10.10
2018-12-01T18:20:58.119Z,10.20
2018-12-01T18:23:25.611Z,10.20
2018-12-01T18:25:53.907Z,10.20
2018-12-01T18:28:25.169Z,10.30
2018-12-01T18:30:52.933Z,10.30
2018-12-01T18:33:22.335Z,10.40
2018-12-01T18:35:49.822Z,10.40
2018-12-01T18:38:17.326Z,10.40
2018-12-01T18:40:44.808Z,10.40
2018-12-01T18:43:12.315Z,10.40
2018-12-01T18:45:41.663Z,10.50
2018-12-01T18:48:09.095Z,10.50
2018-12-01T18:50:36.894Z,10.50
2018-12-01T18:53:05.721Z,10.50
2018-12-01T18:55:33.930Z,10.40
2018-12-01T18:58:01.403Z,10.50
2018-12-01T19:00:33.142Z,10.50
2018-12-01T19:03:00.620Z,10.50
2018-12-01T19:05:28.095Z,10.50
2018-12-01T19:07:55.703Z,10.50
2018-12-01T19:10:23.191Z,10.60
2018-12-01T19:12:50.651Z,10.60
2018-12-01T19:15:18.094Z,10.40
2018-12-01T19:17:46.308Z,10.20
2018-12-01T19:20:14.319Z,10.10
2018-12-01T19:22:41.839Z,10.00
2018-12-01T19:25:10.019Z,9.90
2018-12-01T19:27:37.506Z,9.80
2018-12-01T19:30:06.492Z,9.80
2018-12-01T19:32:33.971Z,9.80
2018-12-01T19:35:01.444Z,9.70
2018-12-01T19:37:28.884Z,9.70
2018-12-01T19:39:56.371Z,9.70
2018-12-01T19:42:23.841Z,9.70
2018-12-01T19:44:51.331Z,9.60
2018-12-01T19:47:18.787Z,9.50
2018-12-01T19:49:46.219Z,9.50
2018-12-01T19:52:13.702Z,9.50
2018-12-01T19:54:41.282Z,9.50
2018-12-01T19:57:08.828Z,9.50
2018-12-01T19:59:36.316Z,9.50
2018-12-01T20:02:03.819Z,9.50
2018-12-01T20:04:31.519Z,9.40
2018-12-01T20:06:58.971Z,9.30
2018-12-01T20:09:26.458Z,9.30
2018-12-01T20:11:53.947Z,9.30
2018-12-01T20:14:21.452Z,9.30
2018-12-01T20:16:50.075Z,9.30
2018-12-01T20:19:17.560Z,9.30
2018-12-01T20:21:45.024Z,9.20
2018-12-01T20:24:12.488Z,9.20
2018-12-01T20:26:40.762Z,9.20
2018-12-01T20:29:08.243Z,9.20
2018-12-01T20:31:35.732Z,9.20
2018-12-01T20:34:03.319Z,9.20
2018-12-01T20:36:33.839Z,9.20
2018-12-01T20:39:05.627Z,9.30
2018-12-01T20:41:33.095Z,9.20
2018-12-01T20:44:00.555Z,9.20
2018-12-01T20:46:28.027Z,9.20
2018-12-01T20:48:55.455Z,9.20
2018-12-01T20:51:22.918Z,9.20
2018-12-01T20:53:50.354Z,9.20
2018-12-01T20:56:19.223Z,9.10
2018-12-01T20:58:46.667Z,9.10
2018-12-01T21:01:14.127Z,9.10
2018-12-01T21:03:41.626Z,9.10
2018-12-01T21:06:09.255Z,9.10
2018-12-01T21:08:36.687Z,9.10
2018-12-01T21:11:05.944Z,9.20
2018-12-01T21:13:33.435Z,9.10
2018-12-01T21:16:01.235Z,9.10
2018-12-01T21:18:28.695Z,9.10
2018-12-01T21:20:56.131Z,9.10
2018-12-01T21:23:23.602Z,9.20
2018-12-01T21:25:51.363Z,9.20
2018-12-01T21:28:18.831Z,9.20
2018-12-01T21:30:46.682Z,9.30
2018-12-01T21:33:15.483Z,9.20
2018-12-01T21:35:42.941Z,9.20
2018-12-01T21:38:11.031Z,9.20
2018-12-01T21:40:38.871Z,9.20
2018-12-01T21:43:06.520Z,9.20
2018-12-01T21:45:33.999Z,9.20
2018-12-01T21:48:01.702Z,9.10
2018-12-01T21:50:30.372Z,9.10
2018-12-01T21:52:57.846Z,9.10
2018-12-01T21:55:25.506Z,9.10
2018-12-01T21:57:53.311Z,9.10
2018-12-01T22:00:24.406Z,9.10
2018-12-01T22:02:54.667Z,9.10
2018-12-01T22:05:23.160Z,9.10
2018-12-01T22:07:50.623Z,9.10
2018-12-01T22:10:18.111Z,9.10
2018-12-01T22:12:45.548Z,9.10
2018-12-01T22:15:15.754Z,9.10
2018-12-01T22:17:43.206Z,9.10
2018-12-01T22:20:11.427Z,9.10
2018-12-01T22:22:38.881Z,9.10
2018-12-01T22:25:07.107Z,9.10
2018-12-01T22:27:34.568Z,9.10
2018-12-01T22:30:02.026Z,9.10
2018-12-01T22:32:29.500Z,9.10
2018-12-01T22:34:56.939Z,9.10
2018-12-01T22:37:24.367Z,9.10
2018-12-01T22:39:51.859Z,9.10
2018-12-01T22:42:19.307Z,9.10
2018-12-01T22:44:46.779Z,9.10
2018-12-01T22:47:15.318Z,9.10
2018-12-01T22:49:42.799Z,9.10
2018-12-01T22:52:10.251Z,9.10
2018-12-01T22:54:37.748Z,9.10
2018-12-01T22:57:05.275Z,9.10
2018-12-01T22:59:32.723Z,9.10
2018-12-01T23:02:00.178Z,9.10
2018-12-01T23:04:27.642Z,9.10
2018-12-01T23:06:55.099Z,9.10
2018-12-01T23:09:22.527Z,9.00
2018-12-01T23:11:49.959Z,9.00
2018-12-01T23:14:17.403Z,9.00
2018-12-01T23:16:45.042Z,9.00
2018-12-01T23:19:12.515Z,9.00
2018-12-01T23:21:39.985Z,9.00
2018-12-01T23:24:07.478Z,9.80
2018-12-01T23:26:34.907Z,9.00
2018-12-01T23:29:02.382Z,9.00
2018-12-01T23:31:29.819Z,9.00
2018-12-01T23:33:57.307Z,9.00
2018-12-01T23:36:24.979Z,9.00
2018-12-01T23:38:52.427Z,9.00
2018-12-01T23:41:19.920Z,9.00
2018-12-01T23:43:47.367Z,9.00
2018-12-01T23:46:14.803Z,9.10
2018-12-01T23:48:42.239Z,9.10
2018-12-01T23:51:09.723Z,9.10
2018-12-01T23:53:37.203Z,9.10
2018-12-01T23:56:04.639Z,9.10
2018-12-01T23:58:32.079Z,9.10
